Watersmeet, MI

12:36 AM CDT on August 22, 2014 (GMT -0500)
RAWS WATERSMEET MI US | Change Station
CLOSE
Current Station
Personal Weather Station
Location: Watersmeet, MI
Elevation: 1604 ft
Nearby Weather Stations

Elev 1604 ft 46.27 °N, 89.17 °W | Updated 59 minutes ago

Overcast
Overcast
65 °F
Feels Like 65 °F
N
2
Wind Variable Wind from SSE
Gusts 5.0 mph

Today
High -- | Low -- °F
--% Chance of Precip.
Yesterday
High -- | Low -- °F
Precip. -- in
6:04 AM 7:53 PM
Waning Crescent, 10% visible
Pressure 29.98 in
Visibility 10.0 miles
Clouds Overcast 800 ft
Dew Point 63 °F
Humidity 92%
Rainfall 0.01 in
Snow Depth Not available.
UV 0 out of 12
Pollen 6.80 out of 12
Air Quality Not available.
Flu Activity Not available.
METAR KLNL 220515Z AUTO 15004KT 10SM OVC008 18/17 A2998 RMK AO2 T01810168

More Conditions Fewer Conditions

Pressure 29.98 in
Visibility 10.0 miles
Clouds Overcast 800 ft
Dew Point 63 °F
Humidity 92%
Rainfall 0.01 in
Snow Depth Not available.
UV 0 out of 12
Pollen 6.80 out of 12
Air Quality Not available.
Flu Activity Not available.
METAR KLNL 220515Z AUTO 15004KT 10SM OVC008 18/17 A2998 RMK AO2 T01810168

More Conditions Fewer Conditions

10-Day Weather Forecast

Almanac

Astronomy

Aug. 22, 2014 Rise Set
Actual Time 6:04 AM CDT 7:53 PM CDT
Civil Twilight 5:32 AM CDT 8:25 PM CDT
Nautical Twilight 4:53 AM CDT 9:04 PM CDT
Astronomical Twilight 4:10 AM CDT 9:47 PM CDT
Moon 3:22 AM CDT 6:05 PM CDT
Length of Visible Light 14h 53m
Length of Day
13h 49m
Tomorrow will be 3m 3s shorter.
Waning Crescent, 10% of the Moon is Illuminated
Today
Waning Crescent
Aug 25
New
Sep 2
First Quarter
Sep 8
Full
Sep 15
Last Quarter

Today's Extremes

State Highs State Lows

Community

WunderPhotos

Upload Photos

1,746,131 photos uploaded!

Nearby

Snow Depth

Station Depth Elevation
No new snow has been reported.

Earthquake Activity

City Distance Mag. Time & Date
No recent earthquake activity has been reported nearby.
Minimum magnitude displayed is 2.5.

Coastal Water Temperatures

Place Temperature
No Stations Reporting

Nearby Weather Stations